Altamonte Springs, Florida
Current Conditions -  °F | °C
As of 6:16 AM on Wednesday 22 Oct 2014 (Local Time) from KORL Reporting Station
Scattered Clouds Scattered Clouds  
Wind Chill: 71°   Ceiling: Unl
Heat Index: 71°   Visibility: 8mi
Dew Point: 70°   Wind: 3mph
Humidity: 96%   Direction: 350°N
Pressure: 29.96"   Gusts: NA
Location:  28.67°N, 81.36°W
Report Text: KORL 221016Z 35003KT 8SM SCT003 22/21 A2996 RMK AO2 T02170211
Loading
Personal Weather Stations






























Interactive Weather Map New forecast layout! Learn more

10-Day Weather Forecast

Advertisements
Track Severe Weather on mobile